createdAt,value
2018-05-02T00:00:55.860Z,13.24
2018-05-02T00:03:33.762Z,13.38
2018-05-02T00:06:04.800Z,13.50
2018-05-02T00:08:35.802Z,13.63
2018-05-02T00:11:06.852Z,13.79
2018-05-02T00:13:37.890Z,13.90
2018-05-02T00:16:08.948Z,13.98
2018-05-02T00:18:39.999Z,14.05
2018-05-02T00:21:10.988Z,14.10
2018-05-02T00:23:42.000Z,14.14
2018-05-02T00:26:13.052Z,14.19
2018-05-02T00:28:44.050Z,14.20
2018-05-02T00:31:15.086Z,14.09
2018-05-02T00:33:46.086Z,14.04
2018-05-02T00:36:17.077Z,14.08
2018-05-02T00:38:48.081Z,14.10
2018-05-02T00:41:19.081Z,14.11
2018-05-02T00:43:50.034Z,14.12
2018-05-02T00:46:20.990Z,14.13
2018-05-02T00:49:04.353Z,14.11
2018-05-02T00:51:35.362Z,14.04
2018-05-02T00:54:06.394Z,14.00
2018-05-02T00:56:37.424Z,13.95
2018-05-02T00:59:08.422Z,13.98
2018-05-02T01:01:39.389Z,14.04
2018-05-02T01:04:10.417Z,14.05
2018-05-02T01:06:41.422Z,13.97
2018-05-02T01:09:12.415Z,13.94
2018-05-02T01:11:43.378Z,13.83
2018-05-02T01:14:14.365Z,13.86
2018-05-02T01:16:45.403Z,13.76
2018-05-02T01:19:16.428Z,13.80
2018-05-02T01:21:47.442Z,13.86
2018-05-02T01:24:18.431Z,13.82
2018-05-02T01:26:49.441Z,13.75
2018-05-02T01:29:20.431Z,13.77
2018-05-02T01:31:51.371Z,13.79
2018-05-02T01:34:22.440Z,13.72
2018-05-02T01:36:53.456Z,13.70
2018-05-02T01:39:24.458Z,13.76
2018-05-02T01:41:55.504Z,13.76
2018-05-02T01:44:26.515Z,13.77
2018-05-02T01:46:57.475Z,13.57
2018-05-02T01:49:28.494Z,13.51
2018-05-02T01:51:59.505Z,13.53
2018-05-02T01:54:30.524Z,13.59
2018-05-02T01:57:01.588Z,13.53
2018-05-02T01:59:32.633Z,13.60
2018-05-02T02:02:03.647Z,13.61
2018-05-02T02:04:34.617Z,13.58
2018-05-02T02:07:05.610Z,13.53
2018-05-02T02:09:36.655Z,13.59
2018-05-02T02:12:07.658Z,13.58
2018-05-02T02:14:38.728Z,13.59
2018-05-02T02:17:09.768Z,13.70
2018-05-02T02:19:40.797Z,13.81
2018-05-02T02:22:11.851Z,13.84
2018-05-02T02:24:42.864Z,13.83
2018-05-02T02:27:13.876Z,13.77
2018-05-02T02:29:44.848Z,13.84
2018-05-02T02:32:15.822Z,13.91
2018-05-02T02:34:46.826Z,13.89
2018-05-02T02:37:17.848Z,13.85
2018-05-02T02:39:48.854Z,13.79
2018-05-02T02:42:19.897Z,13.85
2018-05-02T02:44:50.912Z,13.89
2018-05-02T02:47:21.904Z,13.96
2018-05-02T02:49:52.910Z,13.91
2018-05-02T02:52:23.915Z,13.88
2018-05-02T02:54:54.964Z,13.99
2018-05-02T02:57:25.944Z,14.10
2018-05-02T02:59:56.973Z,14.10
2018-05-02T03:02:27.952Z,14.12
2018-05-02T03:04:58.963Z,14.17
2018-05-02T03:07:29.931Z,14.18
2018-05-02T03:10:00.916Z,14.20
2018-05-02T03:12:31.876Z,14.20
2018-05-02T03:15:02.944Z,14.21
2018-05-02T03:17:33.958Z,14.17
2018-05-02T03:20:04.944Z,14.15
2018-05-02T03:22:35.934Z,14.09
2018-05-02T03:25:06.942Z,14.12
2018-05-02T03:27:37.918Z,14.14
2018-05-02T03:30:08.923Z,14.15
2018-05-02T03:32:39.935Z,14.02
2018-05-02T03:35:10.937Z,13.98
2018-05-02T03:37:41.946Z,13.95
2018-05-02T03:40:12.995Z,13.93
2018-05-02T03:42:44.021Z,13.87
2018-05-02T03:45:15.024Z,13.87
2018-05-02T03:47:46.040Z,13.84
2018-05-02T03:50:17.088Z,13.84
2018-05-02T03:52:48.160Z,13.74
2018-05-02T03:55:19.168Z,13.70
2018-05-02T03:57:50.148Z,13.67
2018-05-02T04:00:33.261Z,13.74
2018-05-02T04:03:16.660Z,13.70
2018-05-02T04:06:00.118Z,13.65
2018-05-02T04:08:31.220Z,13.71
2018-05-02T04:11:02.238Z,13.72
2018-05-02T04:13:33.248Z,13.72
2018-05-02T04:16:04.270Z,13.78
2018-05-02T04:18:35.238Z,13.78
2018-05-02T04:21:06.250Z,13.86
2018-05-02T04:23:37.226Z,13.95
2018-05-02T04:26:08.281Z,14.08
2018-05-02T04:28:39.273Z,14.09
2018-05-02T04:31:10.285Z,14.05
2018-05-02T04:33:41.300Z,14.10
2018-05-02T04:36:12.433Z,14.24
2018-05-02T04:38:43.825Z,14.31
2018-05-02T04:41:14.919Z,14.40
2018-05-02T04:43:46.040Z,14.50
2018-05-02T04:46:17.022Z,14.58
2018-05-02T04:48:48.010Z,14.69
2018-05-02T04:51:19.079Z,14.84
2018-05-02T04:53:50.065Z,14.81
2018-05-02T04:56:21.101Z,14.87
2018-05-02T04:58:52.080Z,14.79
2018-05-02T05:01:23.084Z,14.86
2018-05-02T05:03:54.091Z,14.90
2018-05-02T05:06:25.104Z,14.92
2018-05-02T05:08:56.103Z,14.89
2018-05-02T05:11:27.100Z,14.99
2018-05-02T05:13:58.082Z,14.91
2018-05-02T05:16:29.132Z,15.08
2018-05-02T05:19:00.165Z,15.28
2018-05-02T05:21:31.184Z,15.48
2018-05-02T05:24:02.148Z,15.66
2018-05-02T05:26:33.158Z,15.60
2018-05-02T05:29:04.174Z,15.54
2018-05-02T05:31:35.196Z,15.58
2018-05-02T05:34:06.188Z,15.58
2018-05-02T05:36:37.210Z,15.58
2018-05-02T05:39:08.194Z,15.63
2018-05-02T05:41:39.195Z,15.84
2018-05-02T05:44:10.207Z,16.12
2018-05-02T05:46:41.201Z,16.37
2018-05-02T05:49:12.246Z,16.55
2018-05-02T05:51:43.262Z,16.66
2018-05-02T05:54:14.379Z,16.74
2018-05-02T05:56:45.302Z,16.99
2018-05-02T05:59:16.361Z,17.16
2018-05-02T06:01:47.417Z,17.20
2018-05-02T06:04:18.418Z,17.41
2018-05-02T06:06:49.396Z,17.43
2018-05-02T06:09:20.409Z,17.42
2018-05-02T06:11:51.384Z,17.42
2018-05-02T06:14:22.415Z,17.45
2018-05-02T06:16:53.415Z,17.38
2018-05-02T06:19:24.473Z,17.18
2018-05-02T06:21:55.502Z,17.10
2018-05-02T06:24:26.528Z,17.19
2018-05-02T06:26:57.546Z,17.30
2018-05-02T06:29:28.520Z,17.25
2018-05-02T06:31:59.665Z,17.40
2018-05-02T06:34:30.600Z,17.56
2018-05-02T06:37:01.679Z,17.92
2018-05-02T06:39:32.654Z,18.07
2018-05-02T06:42:03.697Z,17.92
2018-05-02T06:44:34.687Z,17.87
2018-05-02T06:47:05.679Z,17.98
2018-05-02T06:49:36.725Z,18.25
2018-05-02T06:52:07.714Z,18.22
2018-05-02T06:54:38.708Z,18.24
2018-05-02T06:57:09.679Z,18.28
2018-05-02T06:59:40.674Z,18.31
2018-05-02T07:02:11.658Z,18.46
2018-05-02T07:04:42.647Z,18.69
2018-05-02T07:07:13.642Z,18.77
2018-05-02T07:12:22.349Z,18.94
2018-05-02T07:14:53.374Z,19.15
2018-05-02T07:17:24.379Z,19.52
2018-05-02T07:19:55.410Z,19.75
2018-05-02T07:22:26.395Z,20.06
2018-05-02T07:24:57.392Z,20.43
2018-05-02T07:27:28.367Z,20.52
2018-05-02T07:29:59.375Z,20.39
2018-05-02T07:32:30.414Z,20.91
2018-05-02T07:35:01.359Z,21.42
2018-05-02T07:37:32.321Z,21.72
2018-05-02T07:40:03.324Z,22.23
2018-05-02T07:42:34.310Z,23.70
2018-05-02T07:45:05.270Z,24.94
2018-05-02T07:47:36.246Z,25.62
2018-05-02T07:50:07.264Z,26.02
2018-05-02T07:52:38.226Z,26.79
2018-05-02T07:55:09.276Z,27.50
2018-05-02T07:57:40.241Z,27.86
2018-05-02T08:00:11.253Z,27.35
2018-05-02T08:02:49.219Z,27.35
2018-05-02T08:05:20.241Z,28.13
2018-05-02T08:07:51.249Z,29.84
2018-05-02T08:10:22.273Z,32.69
2018-05-02T08:12:53.247Z,35.88
2018-05-02T08:15:24.248Z,38.83
2018-05-02T08:17:55.240Z,42.13
2018-05-02T08:20:26.234Z,43.57
2018-05-02T08:23:04.103Z,40.73
2018-05-02T08:25:35.079Z,38.68
2018-05-02T08:28:06.116Z,35.58
2018-05-02T08:30:37.122Z,34.04
2018-05-02T08:33:08.127Z,33.17
2018-05-02T08:35:39.136Z,32.86
2018-05-02T08:38:10.180Z,32.58
2018-05-02T08:40:41.183Z,33.16
2018-05-02T08:43:12.195Z,36.73
2018-05-02T08:45:43.238Z,41.16
2018-05-02T08:48:14.290Z,44.20
2018-05-02T08:50:45.346Z,46.75
2018-05-02T08:53:16.367Z,49.15
2018-05-02T08:55:47.387Z,50.62
2018-05-02T08:58:18.430Z,49.56
2018-05-02T09:00:49.446Z,48.63
2018-05-02T09:03:22.953Z,50.10
2018-05-02T09:05:53.956Z,49.23
2018-05-02T09:08:24.924Z,48.18
2018-05-02T09:10:55.929Z,46.90
2018-05-02T09:13:26.930Z,47.43
2018-05-02T09:15:57.986Z,46.47
2018-05-02T09:18:29.018Z,48.12
2018-05-02T09:21:00.336Z,47.99
2018-05-02T09:23:31.400Z,48.56
2018-05-02T09:26:02.446Z,49.37
2018-05-02T09:28:33.477Z,46.12
2018-05-02T09:31:04.546Z,45.03
2018-05-02T09:33:35.579Z,45.16
2018-05-02T09:36:06.635Z,44.86
2018-05-02T09:38:37.653Z,45.87
2018-05-02T09:41:08.666Z,47.04
2018-05-02T09:43:39.700Z,46.08
2018-05-02T09:46:10.744Z,47.81
2018-05-02T09:48:41.813Z,48.62
2018-05-02T09:51:12.791Z,48.02
2018-05-02T09:53:43.789Z,46.01
2018-05-02T09:56:14.876Z,43.83
2018-05-02T09:58:45.892Z,41.82
2018-05-02T10:01:16.909Z,38.73
2018-05-02T10:03:47.960Z,37.11
2018-05-02T10:06:19.004Z,37.39
2018-05-02T10:08:50.000Z,38.59
2018-05-02T10:11:21.042Z,39.06
2018-05-02T10:13:52.018Z,38.86
2018-05-02T10:16:23.029Z,37.51
2018-05-02T10:18:54.066Z,36.68
2018-05-02T10:21:25.097Z,35.75
2018-05-02T10:23:56.157Z,35.14
2018-05-02T10:26:27.187Z,35.10
2018-05-02T10:28:58.207Z,34.52
2018-05-02T10:31:29.226Z,34.13
2018-05-02T10:34:00.218Z,34.55
2018-05-02T10:36:31.248Z,34.58
2018-05-02T10:39:02.328Z,33.88
2018-05-02T10:41:33.363Z,33.49
2018-05-02T10:44:04.378Z,33.49
2018-05-02T10:46:35.419Z,33.48
2018-05-02T10:49:06.452Z,33.46
2018-05-02T10:51:37.562Z,33.12
2018-05-02T10:54:08.640Z,33.23
2018-05-02T10:56:39.821Z,33.04
2018-05-02T10:59:10.898Z,33.45
2018-05-02T11:01:41.962Z,33.96
2018-05-02T11:04:13.178Z,33.93
2018-05-02T11:06:44.249Z,33.81
2018-05-02T11:09:15.302Z,32.89
2018-05-02T11:11:46.345Z,32.39
2018-05-02T11:14:17.460Z,31.90
2018-05-02T11:16:48.540Z,31.53
2018-05-02T11:19:19.591Z,31.27
2018-05-02T11:21:50.656Z,30.80
2018-05-02T11:24:21.678Z,30.16
2018-05-02T11:26:52.793Z,29.61
2018-05-02T11:29:23.861Z,29.38
2018-05-02T11:31:54.928Z,29.82
2018-05-02T11:34:26.014Z,29.89
2018-05-02T11:36:57.134Z,30.13
2018-05-02T11:39:28.194Z,30.74
2018-05-02T11:41:59.300Z,31.00
2018-05-02T11:44:30.376Z,30.32
2018-05-02T11:47:01.470Z,29.19
2018-05-02T11:49:33.211Z,28.07
2018-05-02T11:52:04.297Z,27.86
2018-05-02T11:54:35.420Z,28.21
2018-05-02T11:57:06.531Z,28.30
2018-05-02T11:59:37.573Z,27.77
2018-05-02T12:02:08.679Z,27.68
2018-05-02T12:04:39.733Z,27.32
2018-05-02T12:07:10.797Z,27.49
2018-05-02T12:09:41.860Z,27.50
2018-05-02T12:12:12.926Z,27.66
2018-05-02T12:14:44.002Z,28.12
2018-05-02T12:17:15.113Z,28.58
2018-05-02T12:19:46.226Z,28.86
2018-05-02T12:22:17.320Z,29.04
2018-05-02T12:24:48.400Z,29.49
2018-05-02T12:27:19.474Z,29.29
2018-05-02T12:29:50.617Z,29.25
2018-05-02T12:32:21.669Z,29.24
2018-05-02T12:34:52.754Z,29.38
2018-05-02T12:37:23.833Z,29.62
2018-05-02T12:39:55.562Z,29.61
2018-05-02T12:42:26.691Z,29.72
2018-05-02T12:44:57.753Z,30.02
2018-05-02T12:47:28.859Z,30.02
2018-05-02T12:50:00.522Z,30.12
2018-05-02T12:52:31.576Z,29.35
2018-05-02T12:55:02.635Z,28.95
2018-05-02T12:57:34.375Z,29.12
2018-05-02T13:00:05.476Z,29.34
2018-05-02T13:02:36.704Z,29.12
2018-05-02T13:05:07.704Z,28.86
2018-05-02T13:07:38.799Z,28.64
2018-05-02T13:10:09.922Z,28.61
2018-05-02T13:12:41.015Z,28.43
2018-05-02T13:15:12.106Z,29.01
2018-05-02T13:17:43.158Z,28.99
2018-05-02T13:20:14.274Z,29.11
2018-05-02T13:22:45.356Z,28.97
2018-05-02T13:25:16.442Z,29.06
2018-05-02T13:27:47.498Z,29.52
2018-05-02T13:30:18.584Z,29.97
2018-05-02T13:32:49.642Z,29.69
2018-05-02T13:35:20.740Z,29.98
2018-05-02T13:37:51.794Z,30.36
2018-05-02T13:40:22.868Z,30.43
2018-05-02T13:42:53.948Z,29.62
2018-05-02T13:45:25.010Z,30.07
2018-05-02T13:47:56.082Z,30.34
2018-05-02T13:50:27.235Z,29.89
2018-05-02T13:52:58.308Z,29.81
2018-05-02T13:55:29.489Z,29.76
2018-05-02T13:58:00.524Z,29.38
2018-05-02T14:00:31.675Z,28.80
2018-05-02T14:03:02.789Z,28.82
2018-05-02T14:05:33.911Z,29.12
2018-05-02T14:08:04.931Z,29.60
2018-05-02T14:10:35.936Z,29.84
2018-05-02T14:13:06.967Z,29.94
2018-05-02T14:15:37.971Z,29.61
2018-05-02T14:18:08.958Z,29.28
2018-05-02T14:20:39.965Z,29.04
2018-05-02T14:23:10.928Z,28.76
2018-05-02T14:25:41.926Z,28.34
2018-05-02T14:28:12.944Z,28.22
2018-05-02T14:30:43.923Z,27.98
2018-05-02T14:33:14.937Z,27.93
2018-05-02T14:35:45.938Z,27.80
2018-05-02T14:38:17.010Z,27.74
2018-05-02T14:40:48.006Z,27.44
2018-05-02T14:43:19.012Z,27.25
2018-05-02T14:45:50.059Z,27.13
2018-05-02T14:48:21.059Z,26.62
2018-05-02T14:50:52.073Z,26.19
2018-05-02T14:53:23.067Z,25.77
2018-05-02T14:55:54.079Z,25.59
2018-05-02T14:58:25.094Z,25.65
2018-05-02T15:00:56.067Z,25.74
2018-05-02T15:03:27.069Z,25.78
2018-05-02T15:05:58.085Z,25.77
2018-05-02T15:08:29.073Z,25.76
2018-05-02T15:11:00.086Z,25.77
2018-05-02T15:13:38.185Z,25.86
2018-05-02T15:16:09.217Z,25.95
2018-05-02T15:18:41.065Z,26.14
2018-05-02T15:21:12.115Z,26.30
2018-05-02T15:23:43.050Z,26.43
2018-05-02T15:26:14.061Z,26.43
2018-05-02T15:28:45.080Z,26.28
2018-05-02T15:31:16.071Z,26.06
2018-05-02T15:33:47.076Z,25.87
2018-05-02T15:36:18.061Z,25.68
2018-05-02T15:38:49.093Z,25.35
2018-05-02T15:41:20.051Z,25.12
2018-05-02T15:43:51.067Z,24.92
2018-05-02T15:46:22.094Z,24.84
2018-05-02T15:48:53.167Z,24.74
2018-05-02T15:54:20.114Z,24.68
2018-05-02T15:56:51.089Z,24.73
2018-05-02T15:59:22.103Z,24.82
2018-05-02T16:01:53.121Z,24.75
2018-05-02T16:04:24.125Z,24.79
2018-05-02T16:06:55.100Z,24.85
2018-05-02T16:09:26.149Z,25.04
2018-05-02T16:11:57.128Z,25.23
2018-05-02T16:14:28.132Z,25.36
2018-05-02T16:16:59.138Z,25.38
2018-05-02T16:19:30.252Z,25.47
2018-05-02T16:22:01.343Z,25.49
2018-05-02T16:24:32.336Z,25.53
2018-05-02T16:27:04.068Z,25.56
2018-05-02T16:29:35.068Z,25.35
2018-05-02T16:32:06.099Z,25.30
2018-05-02T16:34:37.099Z,25.34
2018-05-02T16:37:08.132Z,25.30
2018-05-02T16:39:39.146Z,25.33
2018-05-02T16:42:10.168Z,25.39
2018-05-02T16:44:41.164Z,25.35
2018-05-02T16:47:12.172Z,25.27
2018-05-02T16:49:43.216Z,25.11
2018-05-02T16:52:14.229Z,24.99
2018-05-02T16:54:45.267Z,24.82
2018-05-02T16:57:16.245Z,24.52
2018-05-02T16:59:47.298Z,24.32
2018-05-02T17:02:18.294Z,24.14
2018-05-02T17:04:49.350Z,23.99
2018-05-02T17:07:20.369Z,23.76
2018-05-02T17:09:51.329Z,23.62
2018-05-02T17:12:22.365Z,23.47
2018-05-02T17:14:53.443Z,23.35
2018-05-02T17:17:24.466Z,23.10
2018-05-02T17:19:55.474Z,22.84
2018-05-02T17:22:26.507Z,22.69
2018-05-02T17:24:57.565Z,22.65
2018-05-02T17:27:28.538Z,22.59
2018-05-02T17:29:59.531Z,22.51
2018-05-02T17:32:30.514Z,22.36
2018-05-02T17:35:01.545Z,22.15
2018-05-02T17:37:32.544Z,21.90
2018-05-02T17:40:03.664Z,21.68
2018-05-02T17:42:34.654Z,21.57
2018-05-02T17:45:05.692Z,21.49
2018-05-02T17:47:36.674Z,21.41
2018-05-02T17:50:07.724Z,21.33
2018-05-02T17:52:38.709Z,21.27
2018-05-02T17:55:09.719Z,21.23
2018-05-02T17:57:40.736Z,21.20
2018-05-02T18:00:11.778Z,21.16
2018-05-02T18:02:42.916Z,21.12
2018-05-02T18:05:13.937Z,21.08
2018-05-02T18:07:44.925Z,21.05
2018-05-02T18:10:15.986Z,20.94
2018-05-02T18:12:47.025Z,20.86
2018-05-02T18:15:18.049Z,20.78
2018-05-02T18:17:49.045Z,20.72
2018-05-02T18:20:20.035Z,20.66
2018-05-02T18:22:51.228Z,20.62
2018-05-02T18:25:22.143Z,20.56
2018-05-02T18:27:53.196Z,20.45
2018-05-02T18:30:24.191Z,20.38
2018-05-02T18:32:55.178Z,20.32
2018-05-02T18:35:26.228Z,20.27
2018-05-02T18:37:57.324Z,20.18
2018-05-02T18:40:28.294Z,20.11
2018-05-02T18:42:59.322Z,20.03
2018-05-02T18:45:30.735Z,19.95
2018-05-02T18:48:02.598Z,19.84
2018-05-02T18:50:34.057Z,19.73
2018-05-02T18:53:05.035Z,19.63
2018-05-02T18:55:36.056Z,19.57
2018-05-02T18:58:07.062Z,19.52
2018-05-02T19:00:38.112Z,19.48
2018-05-02T19:03:09.111Z,19.46
2018-05-02T19:05:40.112Z,19.45
2018-05-02T19:08:11.168Z,19.44
2018-05-02T19:10:42.177Z,19.44
2018-05-02T19:13:13.179Z,19.42
2018-05-02T19:15:44.201Z,19.36
2018-05-02T19:18:21.324Z,19.34
2018-05-02T19:20:52.309Z,19.27
2018-05-02T19:23:23.274Z,19.24
2018-05-02T19:26:00.236Z,19.19
2018-05-02T19:28:31.268Z,19.14
2018-05-02T19:31:08.333Z,19.12
2018-05-02T19:33:45.441Z,19.07
2018-05-02T19:36:16.445Z,19.03
2018-05-02T19:38:47.458Z,18.99
2018-05-02T19:41:24.621Z,18.95
2018-05-02T19:44:01.522Z,18.87
2018-05-02T19:46:32.521Z,18.81
2018-05-02T19:49:03.500Z,18.77
2018-05-02T19:51:40.520Z,18.75
2018-05-02T19:54:11.550Z,18.71
2018-05-02T19:56:42.584Z,18.67
